createdAt,value
2023-05-06T00:00:37.742Z,5.40
2023-05-06T00:02:39.832Z,5.00
2023-05-06T00:04:41.896Z,4.10
2023-05-06T00:06:43.976Z,6.30
2023-05-06T00:08:46.654Z,4.80
2023-05-06T00:10:48.707Z,4.13
2023-05-06T00:12:50.907Z,6.05
2023-05-06T00:14:54.554Z,3.78
2023-05-06T00:16:56.667Z,4.70
2023-05-06T00:18:58.812Z,4.90
2023-05-06T00:21:00.741Z,4.95
2023-05-06T00:23:02.705Z,2.88
2023-05-06T00:25:05.626Z,5.00
2023-05-06T00:27:07.644Z,7.10
2023-05-06T00:29:09.790Z,4.60
2023-05-06T00:31:13.140Z,6.68
2023-05-06T00:33:15.276Z,5.55
2023-05-06T00:35:17.371Z,4.72
2023-05-06T00:37:19.307Z,3.78
2023-05-06T00:39:21.383Z,5.25
2023-05-06T00:41:23.419Z,4.40
2023-05-06T00:43:26.290Z,6.57
2023-05-06T00:45:28.511Z,4.53
2023-05-06T00:47:31.932Z,5.75
2023-05-06T00:49:34.288Z,3.83
2023-05-06T00:51:36.422Z,4.43
2023-05-06T00:53:39.824Z,3.80
2023-05-06T00:55:41.995Z,7.03
2023-05-06T00:57:44.254Z,5.45
2023-05-06T00:59:46.191Z,6.18
2023-05-06T01:01:48.279Z,4.70
2023-05-06T01:03:57.136Z,8.02
2023-05-06T01:06:08.036Z,3.08
2023-05-06T01:08:16.083Z,3.75
2023-05-06T01:10:24.645Z,4.70
2023-05-06T01:12:31.060Z,6.95
2023-05-06T01:14:39.730Z,4.60
2023-05-06T01:16:42.252Z,5.38
2023-05-06T01:18:45.452Z,5.68
2023-05-06T01:20:51.027Z,6.30
2023-05-06T01:22:54.556Z,6.30
2023-05-06T01:24:58.089Z,5.10
2023-05-06T01:27:00.141Z,4.68
2023-05-06T01:29:03.908Z,4.10
2023-05-06T01:31:11.927Z,6.78
2023-05-06T01:33:21.405Z,4.72
2023-05-06T01:35:29.665Z,6.43
2023-05-06T01:37:38.904Z,5.75
2023-05-06T01:39:42.923Z,5.40
2023-05-06T01:41:48.730Z,4.53
2023-05-06T01:43:54.236Z,6.13
2023-05-06T01:45:57.189Z,3.60
2023-05-06T01:47:59.726Z,3.70
2023-05-06T01:50:02.299Z,3.80
2023-05-06T01:52:04.543Z,5.68
2023-05-06T01:54:06.693Z,4.18
2023-05-06T01:56:08.826Z,4.78
2023-05-06T01:58:12.308Z,3.70
2023-05-06T02:00:14.674Z,4.82
2023-05-06T02:02:16.870Z,3.38
2023-05-06T02:04:18.876Z,5.05
2023-05-06T02:06:21.009Z,6.28
2023-05-06T02:08:23.109Z,3.45
2023-05-06T02:10:25.251Z,2.70
2023-05-06T02:12:27.253Z,5.20
2023-05-06T02:14:30.596Z,4.53
2023-05-06T02:16:32.987Z,4.53
2023-05-06T02:18:35.262Z,8.93
2023-05-06T02:20:37.213Z,8.13
2023-05-06T02:22:39.123Z,3.58
2023-05-06T02:24:41.332Z,6.32
2023-05-06T02:26:44.868Z,6.30
2023-05-06T02:28:47.091Z,5.30
2023-05-06T02:30:54.511Z,5.10
2023-05-06T02:32:57.410Z,4.15
2023-05-06T02:34:59.580Z,5.53
2023-05-06T02:37:01.587Z,3.42
2023-05-06T02:39:04.648Z,3.15
2023-05-06T02:41:10.617Z,5.85
2023-05-06T02:43:12.782Z,4.97
2023-05-06T02:45:15.002Z,7.32
2023-05-06T02:47:18.360Z,10.57
2023-05-06T02:49:23.140Z,6.32
2023-05-06T02:51:25.187Z,4.18
2023-05-06T02:53:27.491Z,7.30
2023-05-06T02:55:29.583Z,4.72
2023-05-06T02:57:31.679Z,5.35
2023-05-06T02:59:34.859Z,4.63
2023-05-06T03:01:37.110Z,5.75
2023-05-06T03:03:40.451Z,4.13
2023-05-06T03:05:42.650Z,3.10
2023-05-06T03:07:44.664Z,4.40
2023-05-06T03:09:46.653Z,9.15
2023-05-06T03:11:48.628Z,6.68
2023-05-06T03:13:51.243Z,9.25
2023-05-06T03:15:56.468Z,8.18
2023-05-06T03:17:58.601Z,5.57
2023-05-06T03:20:02.282Z,4.15
2023-05-06T03:22:05.066Z,5.80
2023-05-06T03:24:07.342Z,6.40
2023-05-06T03:26:09.487Z,4.68
2023-05-06T03:28:11.754Z,6.35
2023-05-06T03:30:14.398Z,7.95
2023-05-06T03:32:16.675Z,4.53
2023-05-06T03:34:18.816Z,7.45
2023-05-06T03:36:25.209Z,8.23
2023-05-06T03:38:27.213Z,6.60
2023-05-06T03:40:29.793Z,6.43
2023-05-06T03:42:32.038Z,5.10
2023-05-06T03:44:34.349Z,9.43
2023-05-06T03:46:40.258Z,6.57
2023-05-06T03:48:42.798Z,5.50
2023-05-06T03:50:44.799Z,6.57
2023-05-06T03:52:48.212Z,8.70
2023-05-06T03:54:50.264Z,4.90
2023-05-06T03:56:52.267Z,5.30
2023-05-06T03:58:54.643Z,5.47
2023-05-06T04:00:56.946Z,7.45
2023-05-06T04:02:59.116Z,3.75
2023-05-06T04:05:01.333Z,5.32
2023-05-06T04:07:03.859Z,8.20
2023-05-06T04:09:07.549Z,8.75
2023-05-06T04:11:09.626Z,5.82
2023-05-06T04:13:11.652Z,5.53
2023-05-06T04:15:13.950Z,6.68
2023-05-06T04:17:16.284Z,5.93
2023-05-06T04:19:18.357Z,8.27
2023-05-06T04:21:20.321Z,4.63
2023-05-06T04:23:22.253Z,5.35
2023-05-06T04:25:25.653Z,6.28
2023-05-06T04:27:29.800Z,6.60
2023-05-06T04:29:31.788Z,8.98
2023-05-06T04:31:34.454Z,7.10
2023-05-06T04:33:36.439Z,8.65
2023-05-06T04:35:39.071Z,7.38
2023-05-06T04:37:41.920Z,11.15
2023-05-06T04:39:47.395Z,9.05
2023-05-06T04:41:50.840Z,6.38
2023-05-06T04:43:52.897Z,9.63
2023-05-06T04:45:55.167Z,4.85
2023-05-06T04:47:57.239Z,9.23
2023-05-06T04:49:59.294Z,6.35
2023-05-06T04:52:01.967Z,9.93
2023-05-06T04:54:05.861Z,12.20
2023-05-06T04:56:08.571Z,7.93
2023-05-06T04:58:11.970Z,8.07
2023-05-06T05:00:14.800Z,7.78
2023-05-06T05:02:16.866Z,8.70
2023-05-06T05:04:18.832Z,9.60
2023-05-06T05:06:20.768Z,11.77
2023-05-06T05:08:24.058Z,9.05
2023-05-06T05:10:26.242Z,11.10
2023-05-06T05:12:28.186Z,8.02
2023-05-06T05:14:31.495Z,8.02
2023-05-06T05:16:33.562Z,8.15
2023-05-06T05:18:36.917Z,8.50
2023-05-06T05:20:39.154Z,5.53
2023-05-06T05:22:41.152Z,6.05
2023-05-06T05:24:43.235Z,9.68
2023-05-06T05:26:45.218Z,8.35
2023-05-06T05:28:47.231Z,7.30
2023-05-06T05:30:50.640Z,6.50
2023-05-06T05:32:52.868Z,8.75
2023-05-06T05:34:55.068Z,7.28
2023-05-06T05:36:59.692Z,8.48
2023-05-06T05:39:01.932Z,8.45
2023-05-06T05:41:04.435Z,9.30
2023-05-06T05:43:06.447Z,8.35
2023-05-06T05:45:09.570Z,5.18
2023-05-06T05:47:13.091Z,8.85
2023-05-06T05:49:15.006Z,7.97
2023-05-06T05:51:16.984Z,7.75
2023-05-06T05:53:18.925Z,5.35
2023-05-06T05:55:21.639Z,8.35
2023-05-06T05:57:23.744Z,10.90
2023-05-06T05:59:26.403Z,8.32
2023-05-06T06:01:28.303Z,6.82
2023-05-06T06:03:31.766Z,7.15
2023-05-06T06:05:34.067Z,5.60
2023-05-06T06:07:36.370Z,8.32
2023-05-06T06:09:38.547Z,9.00
2023-05-06T06:11:41.230Z,10.73
2023-05-06T06:13:43.197Z,13.50
2023-05-06T06:15:46.462Z,9.77
2023-05-06T06:17:48.592Z,7.30
2023-05-06T06:19:56.960Z,8.68
2023-05-06T06:21:59.089Z,9.00
2023-05-06T06:24:01.131Z,7.50
2023-05-06T06:26:04.574Z,7.28
2023-05-06T06:28:06.628Z,5.82
2023-05-06T06:30:09.469Z,8.38
2023-05-06T06:32:11.721Z,7.63
2023-05-06T06:34:13.884Z,5.63
2023-05-06T06:36:17.276Z,6.22
2023-05-06T06:38:19.248Z,12.60
2023-05-06T06:40:22.248Z,10.02
2023-05-06T06:42:24.324Z,7.63
2023-05-06T06:44:26.356Z,7.07
2023-05-06T06:46:28.742Z,13.13
2023-05-06T06:48:31.292Z,9.38
2023-05-06T06:50:33.352Z,10.80
2023-05-06T06:52:36.674Z,9.50
2023-05-06T06:54:38.814Z,7.43
2023-05-06T06:56:40.793Z,8.23
2023-05-06T06:58:42.778Z,11.52
2023-05-06T07:00:44.835Z,6.03
2023-05-06T07:02:48.182Z,10.65
2023-05-06T07:04:50.301Z,12.75
2023-05-06T07:06:53.459Z,10.05
2023-05-06T07:08:57.845Z,9.03
2023-05-06T07:10:59.765Z,6.88
2023-05-06T07:13:01.735Z,6.57
2023-05-06T07:15:07.176Z,8.38
2023-05-06T07:17:09.495Z,10.35
2023-05-06T07:19:11.474Z,9.95
2023-05-06T07:21:13.511Z,14.98
2023-05-06T07:23:15.457Z,6.07
2023-05-06T07:25:19.045Z,11.98
2023-05-06T07:27:21.051Z,7.53
2023-05-06T07:29:23.097Z,9.02
2023-05-06T07:31:25.319Z,7.07
2023-05-06T07:33:27.318Z,10.27
2023-05-06T07:35:29.445Z,15.13
2023-05-06T07:37:31.516Z,11.23
2023-05-06T07:39:33.500Z,13.60
2023-05-06T07:41:37.049Z,6.63
2023-05-06T07:43:38.967Z,9.05
2023-05-06T07:45:41.253Z,10.75
2023-05-06T07:47:43.317Z,10.73
2023-05-06T07:49:45.734Z,11.75
2023-05-06T07:51:47.723Z,10.32
2023-05-06T07:53:49.742Z,11.45
2023-05-06T07:55:53.111Z,13.00
2023-05-06T07:57:56.496Z,10.00
2023-05-06T07:59:58.582Z,10.00
2023-05-06T08:02:00.754Z,9.52
2023-05-06T08:04:02.942Z,8.27
2023-05-06T08:06:05.286Z,7.75
2023-05-06T08:08:07.345Z,8.38
2023-05-06T08:10:10.076Z,11.30
2023-05-06T08:12:12.038Z,10.48
2023-05-06T08:14:15.523Z,11.15
2023-05-06T08:16:17.749Z,9.88
2023-05-06T08:18:22.716Z,9.43
2023-05-06T08:20:25.530Z,11.10
2023-05-06T08:22:30.526Z,11.63
2023-05-06T08:24:32.595Z,11.40
2023-05-06T08:26:34.618Z,6.75
2023-05-06T08:28:36.635Z,10.98
2023-05-06T08:30:40.165Z,9.38
2023-05-06T08:32:42.247Z,11.88
2023-05-06T08:34:44.218Z,9.02
2023-05-06T08:36:46.152Z,10.43
2023-05-06T08:38:50.826Z,8.65
2023-05-06T08:40:54.272Z,8.50
2023-05-06T08:42:57.564Z,12.73
2023-05-06T08:44:59.973Z,9.82
2023-05-06T08:47:03.678Z,11.57
2023-05-06T08:49:06.173Z,10.18
2023-05-06T08:51:09.341Z,12.73
2023-05-06T08:53:12.328Z,10.30
2023-05-06T08:55:14.566Z,11.07
2023-05-06T08:57:17.036Z,9.07
2023-05-06T08:59:23.455Z,15.05
2023-05-06T09:01:27.415Z,10.52
2023-05-06T09:03:31.209Z,12.00
2023-05-06T09:05:33.640Z,9.67
2023-05-06T09:07:35.641Z,11.15
2023-05-06T09:09:37.714Z,8.07
2023-05-06T09:11:39.919Z,10.75
2023-05-06T09:13:41.961Z,7.18
2023-05-06T09:15:47.270Z,8.18
2023-05-06T09:17:49.378Z,12.95
2023-05-06T09:19:54.567Z,8.27
2023-05-06T09:21:57.252Z,9.45
2023-05-06T09:24:00.157Z,9.60
2023-05-06T09:26:02.195Z,8.13
2023-05-06T09:28:05.019Z,10.75
2023-05-06T09:30:08.960Z,7.57
2023-05-06T09:32:15.854Z,10.98
2023-05-06T09:34:18.131Z,7.97
2023-05-06T09:36:23.554Z,9.13
2023-05-06T09:38:25.993Z,10.55
2023-05-06T09:40:29.917Z,9.32
2023-05-06T09:42:33.059Z,7.45
2023-05-06T09:44:35.220Z,8.05
2023-05-06T09:46:37.424Z,11.35
2023-05-06T09:48:40.940Z,7.78
2023-05-06T09:50:44.186Z,10.10
2023-05-06T09:52:48.649Z,11.77
2023-05-06T09:54:51.572Z,8.63
2023-05-06T09:56:55.053Z,9.52
2023-05-06T09:59:01.560Z,9.48
2023-05-06T10:01:04.734Z,12.13
2023-05-06T10:03:07.923Z,13.27
2023-05-06T10:05:12.535Z,11.88
2023-05-06T10:07:16.935Z,10.77
2023-05-06T10:09:22.531Z,7.80
2023-05-06T10:11:26.176Z,14.55
2023-05-06T10:13:28.582Z,12.48
2023-05-06T10:15:32.362Z,9.95
2023-05-06T10:17:35.790Z,10.23
2023-05-06T10:19:40.982Z,13.20
2023-05-06T10:21:49.523Z,10.98
2023-05-06T10:24:00.733Z,10.32
2023-05-06T10:26:07.736Z,9.52
2023-05-06T10:28:14.378Z,5.93
2023-05-06T10:30:25.034Z,7.45
2023-05-06T10:32:31.255Z,7.95
2023-05-06T10:34:38.218Z,8.82
2023-05-06T10:36:42.943Z,7.13
2023-05-06T10:38:47.232Z,9.10
2023-05-06T10:40:49.793Z,8.25
2023-05-06T10:42:53.130Z,9.43
2023-05-06T10:44:59.135Z,6.75
2023-05-06T10:47:01.151Z,11.23
2023-05-06T10:49:24.028Z,9.65
2023-05-06T10:51:28.256Z,9.70
2023-05-06T10:54:04.325Z,8.57
2023-05-06T10:56:09.433Z,6.32
2023-05-06T10:58:15.141Z,11.50
2023-05-06T11:00:18.797Z,6.20
2023-05-06T11:02:21.294Z,7.53
2023-05-06T11:04:23.505Z,8.80
2023-05-06T11:06:39.933Z,9.55
2023-05-06T11:08:44.663Z,8.43
2023-05-06T11:10:48.559Z,9.77
2023-05-06T11:12:52.418Z,9.90
2023-05-06T11:15:19.469Z,6.50
2023-05-06T11:17:32.148Z,7.90
2023-05-06T11:19:35.414Z,7.10
2023-05-06T11:21:38.772Z,8.50
2023-05-06T11:24:11.468Z,8.65
2023-05-06T11:26:14.461Z,7.38
2023-05-06T11:28:17.020Z,7.95
2023-05-06T11:30:20.412Z,9.93
2023-05-06T11:32:24.966Z,10.25
2023-05-06T11:34:28.180Z,5.72
2023-05-06T11:36:31.184Z,7.85
2023-05-06T11:38:42.128Z,21.10
2023-05-06T11:40:44.223Z,11.05
2023-05-06T11:42:46.596Z,9.68
2023-05-06T11:44:48.682Z,11.95
2023-05-06T11:46:55.706Z,9.20
2023-05-06T11:48:57.757Z,6.93
2023-05-06T11:51:02.582Z,5.85
2023-05-06T11:55:10.033Z,6.10
2023-05-06T11:57:12.519Z,6.85
2023-05-06T11:59:14.700Z,9.25
2023-05-06T12:01:16.674Z,6.88
2023-05-06T12:03:20.449Z,8.93
2023-05-06T12:05:23.320Z,6.28
2023-05-06T12:07:25.520Z,6.03
2023-05-06T12:09:27.860Z,5.63
2023-05-06T12:11:30.062Z,8.60
2023-05-06T12:13:32.376Z,9.43
2023-05-06T12:15:34.954Z,13.98
2023-05-06T12:17:37.206Z,25.73
2023-05-06T12:19:40.610Z,8.23
2023-05-06T12:21:42.933Z,10.43
2023-05-06T12:23:51.184Z,6.97
2023-05-06T12:26:04.167Z,6.38
2023-05-06T12:28:14.712Z,7.70
2023-05-06T12:30:28.409Z,9.80
2023-05-06T12:32:31.709Z,5.35
2023-05-06T12:34:37.318Z,6.82
2023-05-06T12:36:42.157Z,8.32
2023-05-06T12:40:54.748Z,7.00
2023-05-06T12:42:56.832Z,7.25
2023-05-06T12:45:12.668Z,5.63
2023-05-06T12:47:20.122Z,5.78
2023-05-06T12:49:22.107Z,7.03
2023-05-06T12:51:24.504Z,8.27
2023-05-06T12:53:35.310Z,5.85
2023-05-06T12:55:39.074Z,5.28
2023-05-06T12:57:40.960Z,5.03
2023-05-06T12:59:45.123Z,9.02
2023-05-06T13:01:47.398Z,7.45
2023-05-06T13:03:49.382Z,6.90
2023-05-06T13:05:51.837Z,9.30
2023-05-06T13:07:54.137Z,9.50
2023-05-06T13:09:57.615Z,12.43
2023-05-06T13:11:59.741Z,12.32
2023-05-06T13:14:01.813Z,7.10
2023-05-06T13:16:04.508Z,4.93
2023-05-06T13:18:06.624Z,3.75
2023-05-06T13:20:09.830Z,5.93
2023-05-06T13:22:12.180Z,5.00
2023-05-06T13:24:14.295Z,6.90
2023-05-06T13:26:18.540Z,6.95
2023-05-06T13:28:20.625Z,6.88
2023-05-06T13:30:22.598Z,7.00
2023-05-06T13:32:24.666Z,5.95
2023-05-06T13:34:26.844Z,5.72
2023-05-06T13:36:28.877Z,6.53
2023-05-06T13:38:31.218Z,8.50
2023-05-06T13:40:33.234Z,7.65
2023-05-06T13:42:36.692Z,5.40
2023-05-06T13:44:38.745Z,5.22
2023-05-06T13:46:40.909Z,5.30
2023-05-06T13:48:42.948Z,6.82
2023-05-06T13:50:45.942Z,8.73
2023-05-06T13:52:48.123Z,5.35
2023-05-06T13:54:50.167Z,10.80
2023-05-06T13:56:52.266Z,6.88
2023-05-06T13:58:55.673Z,10.05
2023-05-06T14:00:57.702Z,5.28
2023-05-06T14:02:59.811Z,4.93
2023-05-06T14:05:02.787Z,12.07
2023-05-06T14:07:04.775Z,5.68
2023-05-06T14:09:06.815Z,4.43
2023-05-06T14:11:10.219Z,5.45
2023-05-06T14:13:12.704Z,5.05
2023-05-06T14:15:16.603Z,5.65
2023-05-06T14:17:18.769Z,5.88
2023-05-06T14:19:21.249Z,6.38
2023-05-06T14:21:23.307Z,7.75
2023-05-06T14:23:25.820Z,7.28
2023-05-06T14:25:28.129Z,6.15
2023-05-06T14:27:30.937Z,8.30
2023-05-06T14:29:32.864Z,5.18
2023-05-06T14:31:36.283Z,7.70
2023-05-06T14:33:38.935Z,8.50
2023-05-06T14:35:41.942Z,5.63
2023-05-06T14:37:43.986Z,5.40
2023-05-06T14:39:45.973Z,9.90
2023-05-06T14:41:48.190Z,11.38
2023-05-06T14:43:50.326Z,7.18
2023-05-06T14:45:52.303Z,11.75
2023-05-06T14:47:55.833Z,7.20
2023-05-06T14:49:57.954Z,5.38
2023-05-06T14:52:00.047Z,9.18
2023-05-06T14:54:02.257Z,3.95
2023-05-06T14:56:07.078Z,4.50
2023-05-06T15:00:14.675Z,6.45
2023-05-06T15:02:16.735Z,3.72
2023-05-06T15:04:20.191Z,4.95
2023-05-06T15:06:22.213Z,1.63
2023-05-06T15:08:24.296Z,4.60
2023-05-06T15:10:26.333Z,5.05
2023-05-06T15:12:28.353Z,4.80
2023-05-06T15:14:30.346Z,5.30
2023-05-06T15:16:32.361Z,4.80
2023-05-06T15:18:34.477Z,6.38
2023-05-06T15:20:38.156Z,3.60
2023-05-06T15:22:40.369Z,7.45
2023-05-06T15:24:42.582Z,3.45
2023-05-06T15:26:44.694Z,5.70
2023-05-06T15:28:46.707Z,6.32
2023-05-06T15:30:48.774Z,9.13
2023-05-06T15:32:50.814Z,6.32
2023-05-06T15:34:52.709Z,7.53
2023-05-06T15:36:56.369Z,5.22
2023-05-06T15:39:00.760Z,5.70
2023-05-06T15:41:02.968Z,5.15
2023-05-06T15:43:05.561Z,6.93
2023-05-06T15:45:08.349Z,8.52
2023-05-06T15:47:10.678Z,6.32
2023-05-06T15:49:45.677Z,4.95
2023-05-06T15:51:34.771Z,5.07
2023-05-06T15:53:40.661Z,4.75
2023-05-06T15:55:46.939Z,10.18
2023-05-06T15:57:57.438Z,5.63
2023-05-06T16:00:01.739Z,7.03
2023-05-06T16:06:11.504Z,6.25
2023-05-06T16:08:13.441Z,6.22
2023-05-06T16:10:16.803Z,5.85
2023-05-06T16:12:18.837Z,6.43
2023-05-06T16:14:20.869Z,10.85
2023-05-06T16:16:22.911Z,7.40
2023-05-06T16:18:24.998Z,8.48
2023-05-06T16:20:27.010Z,10.07
2023-05-06T16:22:29.000Z,7.93
2023-05-06T16:24:31.181Z,8.65
2023-05-06T16:26:34.518Z,6.45
2023-05-06T16:28:38.120Z,8.75
2023-05-06T16:30:44.618Z,8.07
2023-05-06T16:32:46.773Z,7.72
2023-05-06T16:34:49.065Z,11.25
2023-05-06T16:36:51.142Z,20.58
2023-05-06T16:38:53.220Z,10.15
2023-05-06T16:40:55.276Z,8.27
2023-05-06T16:42:58.677Z,5.90
2023-05-06T16:45:00.731Z,15.55
2023-05-06T16:47:02.924Z,16.30
2023-05-06T16:49:05.232Z,8.45
2023-05-06T16:51:07.367Z,9.13
2023-05-06T16:53:09.566Z,9.75
2023-05-06T16:55:11.788Z,10.50
2023-05-06T16:57:13.899Z,8.10
2023-05-06T16:59:20.887Z,9.93
2023-05-06T17:01:24.386Z,13.38
2023-05-06T17:03:26.752Z,9.35
2023-05-06T17:05:30.883Z,10.63
2023-05-06T17:07:32.925Z,8.25
2023-05-06T17:09:34.875Z,6.15
2023-05-06T17:11:37.004Z,26.77
2023-05-06T17:13:39.111Z,8.57
2023-05-06T17:15:42.658Z,11.23
2023-05-06T17:17:44.761Z,7.43
2023-05-06T17:19:47.094Z,9.60
2023-05-06T17:21:49.104Z,9.07
2023-05-06T17:23:53.432Z,10.52
2023-05-06T17:25:56.828Z,12.02
2023-05-06T17:27:58.850Z,8.77
2023-05-06T17:30:01.399Z,11.52
2023-05-06T17:32:05.230Z,6.40
2023-05-06T17:34:07.546Z,9.68
2023-05-06T17:36:09.695Z,9.40
2023-05-06T17:38:12.502Z,12.35
2023-05-06T17:40:15.129Z,9.25
2023-05-06T17:42:17.330Z,7.28
2023-05-06T17:44:19.792Z,8.82
2023-05-06T17:46:21.854Z,9.05
2023-05-06T17:48:25.484Z,7.70
2023-05-06T17:50:27.524Z,7.85
2023-05-06T17:52:29.655Z,11.32
2023-05-06T17:54:36.283Z,8.40
2023-05-06T17:56:38.295Z,9.75
2023-05-06T17:58:40.319Z,10.15
2023-05-06T18:00:42.779Z,8.30
2023-05-06T18:02:45.423Z,10.18
2023-05-06T18:04:50.352Z,7.75
2023-05-06T18:06:52.606Z,10.70
2023-05-06T18:08:54.523Z,8.93
2023-05-06T18:10:56.587Z,9.63
2023-05-06T18:12:58.658Z,15.43
2023-05-06T18:15:01.335Z,10.45
2023-05-06T18:17:03.464Z,9.90
2023-05-06T18:19:05.552Z,13.95
2023-05-06T18:21:08.964Z,8.77
2023-05-06T18:23:11.024Z,8.13
2023-05-06T18:25:13.252Z,7.72
2023-05-06T18:27:15.765Z,9.23
2023-05-06T18:29:18.581Z,12.48
2023-05-06T18:31:21.127Z,9.73
2023-05-06T18:33:23.355Z,10.95
2023-05-06T18:35:25.440Z,9.82
2023-05-06T18:37:29.598Z,8.50
2023-05-06T18:39:31.569Z,8.35
2023-05-06T18:41:33.584Z,11.52
2023-05-06T18:43:35.705Z,12.45
2023-05-06T18:45:37.873Z,10.23
2023-05-06T18:47:40.180Z,11.35
2023-05-06T18:49:42.328Z,10.32
2023-05-06T18:51:44.362Z,7.00
2023-05-06T18:53:47.690Z,7.50
2023-05-06T18:55:50.819Z,9.35
2023-05-06T18:57:52.901Z,10.15
2023-05-06T18:59:54.953Z,8.13
2023-05-06T19:01:57.045Z,9.90
2023-05-06T19:03:59.341Z,8.60
2023-05-06T19:06:03.264Z,7.88
2023-05-06T19:08:05.660Z,10.48
2023-05-06T19:10:10.084Z,8.00
2023-05-06T19:12:12.082Z,10.13
2023-05-06T19:14:14.357Z,14.32
2023-05-06T19:16:16.415Z,10.98
2023-05-06T19:18:18.445Z,8.65
2023-05-06T19:20:20.496Z,13.40
2023-05-06T19:22:23.008Z,9.90
2023-05-06T19:24:25.090Z,9.18
2023-05-06T19:26:28.598Z,6.82
2023-05-06T19:28:30.567Z,7.97
2023-05-06T19:30:33.751Z,11.07
2023-05-06T19:32:35.881Z,7.72
2023-05-06T19:34:37.918Z,9.15
2023-05-06T19:36:39.941Z,7.80
2023-05-06T19:38:41.859Z,9.43
2023-05-06T19:40:43.909Z,6.45
2023-05-06T19:42:47.334Z,8.40
2023-05-06T19:44:49.815Z,11.05
2023-05-06T19:46:56.163Z,8.90
2023-05-06T19:48:58.379Z,7.40
2023-05-06T19:51:00.604Z,9.10
2023-05-06T19:53:02.810Z,7.30
2023-05-06T19:55:05.671Z,8.43
2023-05-06T19:57:07.692Z,10.73
2023-05-06T19:59:11.193Z,9.75
2023-05-06T20:01:13.322Z,8.82
2023-05-06T20:03:15.623Z,9.30
2023-05-06T20:05:17.881Z,7.53
2023-05-06T20:07:21.052Z,9.77
2023-05-06T20:09:23.924Z,10.93
2023-05-06T20:11:25.869Z,10.43
2023-05-06T20:13:28.086Z,14.90
2023-05-06T20:15:31.899Z,12.68
2023-05-06T20:17:34.638Z,9.82
2023-05-06T20:19:36.616Z,9.85
2023-05-06T20:21:40.126Z,10.07
2023-05-06T20:23:42.159Z,9.93
2023-05-06T20:25:44.268Z,11.07
2023-05-06T20:27:46.498Z,11.25
2023-05-06T20:29:49.819Z,11.45
2023-05-06T20:31:53.153Z,10.38
2023-05-06T20:33:55.687Z,8.98
2023-05-06T20:35:57.963Z,9.82
2023-05-06T20:38:01.907Z,12.05
2023-05-06T20:40:05.784Z,14.93
2023-05-06T20:42:09.222Z,16.63
2023-05-06T20:44:12.053Z,11.15
2023-05-06T20:46:14.310Z,10.90
2023-05-06T20:48:17.983Z,11.25
2023-05-06T20:50:20.175Z,13.02
2023-05-06T20:52:22.279Z,9.52
2023-05-06T20:54:24.326Z,14.93
2023-05-06T20:56:26.589Z,14.40
2023-05-06T20:58:29.358Z,9.93
2023-05-06T21:00:31.391Z,13.23
2023-05-06T21:02:35.944Z,12.68
2023-05-06T21:04:43.865Z,10.50
2023-05-06T21:06:45.930Z,14.77
2023-05-06T21:08:48.032Z,13.13
2023-05-06T21:10:50.077Z,10.32
2023-05-06T21:12:52.338Z,17.88
2023-05-06T21:14:54.323Z,12.65
2023-05-06T21:16:56.316Z,12.32
2023-05-06T21:18:58.565Z,14.30
2023-05-06T21:21:02.064Z,14.77
2023-05-06T21:23:04.343Z,12.80
2023-05-06T21:25:07.870Z,13.30
2023-05-06T21:27:10.325Z,13.80
2023-05-06T21:29:12.309Z,13.70
2023-05-06T21:31:14.474Z,13.27
2023-05-06T21:33:16.656Z,13.35
2023-05-06T21:35:20.178Z,12.38
2023-05-06T21:37:23.511Z,16.58
2023-05-06T21:39:25.910Z,15.00
2023-05-06T21:41:28.150Z,14.07
2023-05-06T21:43:31.463Z,13.25
2023-05-06T21:45:35.801Z,14.02
2023-05-06T21:47:37.854Z,15.43
2023-05-06T21:49:40.081Z,12.27
2023-05-06T21:51:42.295Z,10.32
2023-05-06T21:53:49.665Z,10.13
2023-05-06T21:55:52.440Z,11.82
2023-05-06T21:57:54.566Z,12.40
2023-05-06T21:59:56.644Z,14.77
2023-05-06T22:01:58.828Z,12.88
2023-05-06T22:04:01.094Z,12.10
2023-05-06T22:06:03.484Z,15.70
2023-05-06T22:08:06.597Z,10.88
2023-05-06T22:10:10.959Z,11.48
2023-05-06T22:12:15.332Z,10.65
2023-05-06T22:14:19.852Z,12.93
2023-05-06T22:16:24.319Z,12.90
2023-05-06T22:18:27.903Z,12.52
2023-05-06T22:20:30.677Z,11.65
2023-05-06T22:22:32.667Z,12.45
2023-05-06T22:24:37.689Z,7.22
2023-05-06T22:26:41.233Z,14.18
2023-05-06T22:28:43.231Z,11.32
2023-05-06T22:30:45.939Z,9.13
2023-05-06T22:32:48.115Z,13.23
2023-05-06T22:34:50.100Z,9.73
2023-05-06T22:36:52.126Z,9.85
2023-05-06T22:38:54.182Z,13.25
2023-05-06T22:40:56.105Z,14.13
2023-05-06T22:42:59.558Z,14.43
2023-05-06T22:45:01.845Z,15.43
2023-05-06T22:47:03.972Z,18.25
2023-05-06T22:49:06.589Z,15.57
2023-05-06T22:51:09.220Z,17.75
2023-05-06T22:53:15.477Z,16.40
2023-05-06T22:55:17.834Z,24.15
2023-05-06T22:57:23.099Z,20.27
2023-05-06T22:59:26.605Z,25.02
2023-05-06T23:01:32.113Z,29.63
2023-05-06T23:03:35.739Z,32.22
2023-05-06T23:05:37.846Z,11.07
2023-05-06T23:07:39.816Z,7.70
2023-05-06T23:09:41.802Z,7.32
2023-05-06T23:11:43.777Z,8.60
2023-05-06T23:13:45.826Z,7.82
2023-05-06T23:15:49.098Z,9.00
2023-05-06T23:17:51.097Z,4.65
2023-05-06T23:19:53.202Z,9.98
2023-05-06T23:21:55.164Z,14.40
2023-05-06T23:23:57.324Z,19.15
2023-05-06T23:25:59.509Z,17.20
2023-05-06T23:28:01.680Z,12.32
2023-05-06T23:30:03.868Z,6.30
2023-05-06T23:32:08.710Z,7.75
2023-05-06T23:36:12.636Z,9.10
2023-05-06T23:38:14.548Z,7.97
2023-05-06T23:40:16.810Z,8.13
2023-05-06T23:42:19.166Z,4.18
2023-05-06T23:44:21.344Z,7.78
2023-05-06T23:46:23.378Z,4.78
2023-05-06T23:48:26.887Z,5.82
2023-05-06T23:50:28.962Z,7.93
2023-05-06T23:52:31.382Z,8.00
2023-05-06T23:54:33.464Z,5.50
2023-05-06T23:56:35.939Z,19.17
2023-05-06T23:58:38.124Z,4.90
